TimeCDT,TemperatureF,Dew PointF,Humidity,Sea Level PressureIn,VisibilityMPH,Wind Direction,Wind SpeedMPH,Gust SpeedMPH,PrecipitationIn,Events,Conditions,WindDirDegrees,DateUTC
12:15 AM,35.1,32.9,92,29.87,10.0,Calm,Calm,-,N/A,,Clear,0,2013-04-28 05:15:00
12:35 AM,35.6,32.9,90,29.87,10.0,North,4.6,-,N/A,,Clear,360,2013-04-28 05:35:00
12:55 AM,35.8,32.9,89,29.87,10.0,North,4.6,-,N/A,,Clear,10,2013-04-28 05:55:00
1:15 AM,35.6,32.9,90,29.86,10.0,Calm,Calm,-,N/A,,Clear,0,2013-04-28 06:15:00
1:35 AM,35.8,32.9,89,29.87,10.0,Calm,Calm,-,N/A,,Clear,0,2013-04-28 06:35:00
1:55 AM,33.3,31.3,92,29.86,10.0,Calm,Calm,-,N/A,,Clear,0,2013-04-28 06:55:00
2:15 AM,33.8,32.4,94,29.85,10.0,Calm,Calm,-,N/A,,Scattered Clouds,0,2013-04-28 07:15:00
2:35 AM,32.7,31.6,96,29.83,10.0,Calm,Calm,-,N/A,,Clear,0,2013-04-28 07:35:00
2:55 AM,32.4,31.8,98,29.84,10.0,Calm,Calm,-,N/A,,Clear,0,2013-04-28 07:55:00
3:15 AM,31.3,30.4,96,29.83,10.0,Calm,Calm,-,N/A,,Clear,0,2013-04-28 08:15:00
3:35 AM,31.1,30.2,96,29.83,7.0,Calm,Calm,-,N/A,,Clear,0,2013-04-28 08:35:00
3:55 AM,31.8,30.7,96,29.84,10.0,Calm,Calm,-,N/A,,Clear,0,2013-04-28 08:55:00
4:15 AM,32.0,31.5,98,29.83,7.0,Calm,Calm,-,N/A,,Clear,0,2013-04-28 09:15:00
4:35 AM,30.9,30.0,96,29.83,7.0,South,3.5,-,N/A,,Scattered Clouds,180,2013-04-28 09:35:00
4:55 AM,30.7,30.2,98,29.83,5.0,Calm,Calm,-,N/A,,Clear,0,2013-04-28 09:55:00
5:15 AM,31.6,31.3,99,29.83,7.0,Calm,Calm,-,N/A,,Clear,0,2013-04-28 10:15:00
5:35 AM,31.8,31.5,99,29.83,5.0,Calm,Calm,-,N/A,,Clear,0,2013-04-28 10:35:00
5:55 AM,31.8,31.1,97,29.82,7.0,Calm,Calm,-,N/A,,Clear,0,2013-04-28 10:55:00
6:15 AM,32.4,31.8,98,29.82,7.0,Calm,Calm,-,N/A,,Clear,0,2013-04-28 11:15:00
6:35 AM,32.9,32.0,96,29.81,5.0,Calm,Calm,-,N/A,,Mostly Cloudy,0,2013-04-28 11:35:00
6:55 AM,34.7,33.6,96,29.81,5.0,Calm,Calm,-,N/A,,Overcast,0,2013-04-28 11:55:00
7:15 AM,36.0,33.8,92,29.81,10.0,Calm,Calm,-,N/A,,Mostly Cloudy,0,2013-04-28 12:15:00
7:35 AM,38.1,34.7,87,29.81,10.0,NE,3.5,-,N/A,,Scattered Clouds,40,2013-04-28 12:35:00
8:15 AM,40.5,35.1,81,29.80,10.0,NE,3.5,-,N/A,,Scattered Clouds,50,2013-04-28 13:15:00
8:35 AM,42.6,35.8,77,29.80,10.0,Calm,Calm,-,N/A,,Scattered Clouds,0,2013-04-28 13:35:00
8:55 AM,45.9,37.0,71,29.79,10.0,Calm,Calm,-,N/A,,Scattered Clouds,0,2013-04-28 13:55:00
9:15 AM,49.1,39.4,69,29.79,10.0,Calm,Calm,-,N/A,,Mostly Cloudy,0,2013-04-28 14:15:00
9:35 AM,52.7,41.7,66,29.78,10.0,Calm,Calm,-,N/A,,Mostly Cloudy,0,2013-04-28 14:35:00
9:55 AM,57.0,42.6,59,29.77,10.0,Calm,Calm,-,N/A,,Mostly Cloudy,0,2013-04-28 14:55:00
10:15 AM,59.7,43.9,56,29.76,10.0,Calm,Calm,-,N/A,,Scattered Clouds,0,2013-04-28 15:15:00
10:35 AM,57.0,42.3,58,29.74,10.0,ENE,5.8,-,N/A,,Clear,70,2013-04-28 15:35:00
10:55 AM,56.3,42.3,59,29.73,10.0,ENE,5.8,-,N/A,,Clear,70,2013-04-28 15:55:00
11:15 AM,57.6,43.3,59,29.73,10.0,ENE,4.6,-,N/A,,Scattered Clouds,70,2013-04-28 16:15:00
11:35 AM,54.0,41.4,62,29.73,10.0,NNE,8.1,-,N/A,,Scattered Clouds,30,2013-04-28 16:35:00
11:55 AM,55.6,42.6,62,29.72,10.0,ENE,9.2,-,N/A,,Clear,60,2013-04-28 16:55:00
12:15 PM,59.4,43.7,56,29.71,10.0,East,11.5,-,N/A,,Clear,90,2013-04-28 17:15:00
12:35 PM,59.7,44.1,56,29.70,10.0,ENE,6.9,-,N/A,,Clear,60,2013-04-28 17:35:00
12:55 PM,68.7,46.0,44,29.70,10.0,SSW,15.0,19.6,N/A,,Clear,210,2013-04-28 17:55:00
1:15 PM,58.8,42.8,55,29.70,10.0,NNE,8.1,-,N/A,,Clear,20,2013-04-28 18:15:00
1:35 PM,55.6,43.0,63,29.70,10.0,NNE,9.2,-,N/A,,Clear,30,2013-04-28 18:35:00
1:55 PM,55.8,42.8,62,29.69,10.0,NE,10.4,-,N/A,,Clear,40,2013-04-28 18:55:00
2:15 PM,55.4,42.3,61,29.69,10.0,ENE,9.2,-,N/A,,Scattered Clouds,60,2013-04-28 19:15:00
2:35 PM,51.8,41.2,67,29.69,10.0,ENE,9.2,-,N/A,,Scattered Clouds,60,2013-04-28 19:35:00
2:55 PM,50.7,40.6,68,29.69,10.0,NE,9.2,-,N/A,,Overcast,50,2013-04-28 19:55:00
3:15 PM,51.3,40.6,67,29.70,10.0,NE,8.1,-,N/A,,Mostly Cloudy,40,2013-04-28 20:15:00
3:35 PM,52.3,41.2,66,29.69,10.0,ENE,6.9,-,N/A,,Mostly Cloudy,70,2013-04-28 20:35:00
3:55 PM,53.2,41.5,65,29.69,10.0,NE,5.8,-,N/A,,Scattered Clouds,50,2013-04-28 20:55:00
4:15 PM,53.4,41.4,64,29.69,10.0,ENE,5.8,-,N/A,,Scattered Clouds,70,2013-04-28 21:15:00
4:35 PM,52.3,41.0,65,29.69,10.0,NNE,4.6,-,N/A,,Mostly Cloudy,30,2013-04-28 21:35:00
4:55 PM,49.6,40.6,71,29.69,10.0,NNW,4.6,-,N/A,,Light Drizzle,340,2013-04-28 21:55:00
5:15 PM,47.3,39.9,76,29.69,10.0,NE,4.6,-,N/A,,Overcast,50,2013-04-28 22:15:00
5:35 PM,46.4,39.4,77,29.69,10.0,ENE,3.5,-,N/A,,Overcast,60,2013-04-28 22:35:00
5:55 PM,47.7,39.4,73,29.70,10.0,Calm,Calm,-,N/A,,Mostly Cloudy,0,2013-04-28 22:55:00
6:15 PM,48.0,39.2,72,29.70,10.0,Calm,Calm,-,N/A,,Mostly Cloudy,0,2013-04-28 23:15:00
6:35 PM,48.9,39.6,70,29.70,10.0,Calm,Calm,-,N/A,,Scattered Clouds,0,2013-04-28 23:35:00
6:55 PM,49.5,40.3,71,29.70,10.0,Calm,Calm,-,N/A,,Clear,0,2013-04-28 23:55:00
7:15 PM,50.0,40.5,70,29.71,10.0,Calm,Calm,-,N/A,,Mostly Cloudy,0,2013-04-29 00:15:00
7:35 PM,49.5,40.3,71,29.71,10.0,Calm,Calm,-,N/A,,Overcast,0,2013-04-29 00:35:00
7:55 PM,49.3,40.1,71,29.71,10.0,Calm,Calm,-,N/A,,Mostly Cloudy,0,2013-04-29 00:55:00
8:15 PM,46.9,40.1,77,29.70,10.0,SSE,4.6,-,N/A,,Scattered Clouds,160,2013-04-29 01:15:00
8:35 PM,47.3,40.3,77,29.71,10.0,South,5.8,-,N/A,,Mostly Cloudy,180,2013-04-29 01:35:00
8:55 PM,46.9,40.1,77,29.71,10.0,South,3.5,-,N/A,,Overcast,170,2013-04-29 01:55:00
9:15 PM,48.2,40.5,75,29.70,10.0,South,4.6,-,N/A,,Overcast,180,2013-04-29 02:15:00
9:35 PM,49.1,42.6,78,29.70,10.0,South,6.9,-,N/A,Rain,Light Rain,190,2013-04-29 02:35:00
9:55 PM,50.2,45.1,83,29.71,10.0,SSW,4.6,-,N/A,Rain,Rain,210,2013-04-29 02:55:00
10:15 PM,53.6,47.3,79,29.74,10.0,WSW,5.8,-,N/A,,Light Drizzle,240,2013-04-29 03:15:00
10:35 PM,52.3,47.3,83,29.73,10.0,South,5.8,-,N/A,Rain,Light Rain,180,2013-04-29 03:35:00
10:55 PM,52.2,47.3,83,29.74,10.0,WSW,4.6,-,N/A,,Mostly Cloudy,250,2013-04-29 03:55:00
11:15 PM,52.5,46.4,80,29.74,10.0,West,4.6,-,N/A,,Scattered Clouds,260,2013-04-29 04:15:00
11:35 PM,49.1,46.2,90,29.75,10.0,Calm,Calm,-,N/A,,Clear,0,2013-04-29 04:35:00
11:55 PM,48.9,45.5,88,29.75,10.0,Calm,Calm,-,N/A,,Clear,0,2013-04-29 04:55:00